Time;durP1;ratioP1;P1;durP2;ratioP2;P2;SDS_P1;SDS_P2;PMS_P1;PMS_P2;Temp;Humidity;BMP_temperature;BMP_pressure;BME280_temperature;BME280_humidity;BME280_pressure;Samples;Min_cycle;Max_cycle;Signal;HPM_P1;HPM_P2
2021/04/12 00:03:16;;;;;;;6.45;3.10;;;;;;;11.98;73.47;100275.14;715075;1199;113768;-79
2021/04/12 00:18:49;;;;;;;5.58;3.50;;;;;;;11.69;75.08;100275.22;717103;1184;113686;-82
2021/04/12 00:34:28;;;;;;;6.20;3.63;;;;;;;11.43;77.23;100281.09;716866;1176;113674;-81
2021/04/12 00:50:04;;;;;;;8.17;3.80;;;;;;;11.20;78.37;100270.05;716902;1200;113652;-82
2021/04/12 01:05:33;;;;;;;7.57;4.23;;;;;;;11.07;80.04;100257.20;720134;1164;113813;-83
2021/04/12 01:36:16;;;;;;;6.50;4.10;;;;;;;10.69;83.69;100257.07;714282;1195;113646;-76
2021/04/12 01:51:30;;;;;;;7.55;4.35;;;;;;;10.60;86.53;100260.52;714110;1200;113808;-77
2021/04/12 02:06:42;;;;;;;6.93;4.13;;;;;;;10.39;88.38;100255.38;714179;1200;113709;-76
2021/04/12 02:22:23;;;;;;;5.83;3.65;;;;;;;10.37;89.49;100254.66;714128;1195;114467;-76
2021/04/12 02:37:59;;;;;;;8.20;5.20;;;;;;;10.42;90.82;100250.66;714093;1177;113764;-80
2021/04/12 02:53:22;;;;;;;7.70;4.70;;;;;;;10.12;95.56;100260.23;713888;1177;113655;-79
2021/04/12 03:09:10;;;;;;;9.05;5.48;;;;;;;10.41;95.37;100253.42;713878;1204;113954;-78
2021/04/12 03:24:19;;;;;;;8.95;5.20;;;;;;;10.11;95.75;100245.45;713452;1177;113684;-79
2021/04/12 03:39:35;;;;;;;12.37;5.90;;;;;;;10.05;97.10;100259.08;713560;1181;114039;-79
2021/04/12 03:54:42;;;;;;;10.83;6.65;;;;;;;9.92;98.53;100268.97;713423;1176;113369;-79
2021/04/12 04:10:16;;;;;;;9.48;6.43;;;;;;;10.08;95.95;100265.86;713535;1200;114550;-79
2021/04/12 04:25:26;;;;;;;125.93;40.60;;;;;;;9.85;99.08;100278.33;714124;1200;113875;-78
2021/04/12 04:40:44;;;;;;;49.67;26.20;;;;;;;9.93;97.83;100292.41;714175;1200;114904;-79
2021/04/12 04:56:15;;;;;;;25.40;12.45;;;;;;;9.97;99.32;100292.99;713862;1177;113923;-79
2021/04/12 05:11:41;;;;;;;18.80;9.30;;;;;;;10.36;99.01;100311.53;713762;1187;115001;-79
2021/04/12 05:27:00;;;;;;;10.55;7.35;;;;;;;10.80;98.02;100314.66;713854;1200;113859;-79
2021/04/12 05:42:20;;;;;;;13.53;7.65;;;;;;;11.44;95.56;100322.13;713949;1200;113350;-79
2021/04/12 05:57:34;;;;;;;19.60;10.40;;;;;;;12.11;92.64;100332.66;714342;1202;114833;-76
2021/04/12 06:13:10;;;;;;;15.13;8.43;;;;;;;12.56;88.54;100337.16;714671;1175;114036;-78
2021/04/12 06:28:44;;;;;;;10.97;7.30;;;;;;;12.62;85.09;100348.92;713957;1200;113842;-71
2021/04/12 06:44:25;;;;;;;14.90;7.95;;;;;;;12.55;83.66;100348.69;713979;1200;113832;-79
2021/04/12 06:59:39;;;;;;;11.40;7.20;;;;;;;13.31;82.53;100344.00;714290;1195;113706;-75
2021/04/12 07:15:23;;;;;;;12.70;8.18;;;;;;;13.95;80.18;100346.49;714899;1200;114426;-77
2021/04/12 07:31:02;;;;;;;12.13;8.10;;;;;;;14.76;76.96;100344.38;713619;1186;114089;-77
2021/04/12 07:46:41;;;;;;;13.35;7.43;;;;;;;15.44;75.00;100334.53;714495;1200;113845;-77
2021/04/12 08:02:01;;;;;;;17.07;7.97;;;;;;;16.45;72.45;100362.28;714727;1205;114122;-77
2021/04/12 08:17:12;;;;;;;;;;;;;;;16.97;67.93;100362.72;714889;1174;113954;-77
2021/04/12 08:32:29;;;;;;;9.70;6.98;;;;;;;16.97;67.90;100375.97;714184;1200;99932;-77
2021/04/12 08:48:01;;;;;;;13.95;7.58;;;;;;;17.37;67.77;100392.61;714125;1204;114251;-77
2021/04/12 09:03:34;;;;;;;12.30;7.68;;;;;;;18.15;66.74;100402.25;713659;1178;113863;-79
2021/04/12 09:18:58;;;;;;;10.10;6.80;;;;;;;18.42;64.25;100393.64;713969;1205;114604;-76
2021/04/12 09:34:26;;;;;;;12.57;7.83;;;;;;;19.15;63.21;100400.01;714240;1179;113263;-77
2021/04/12 09:50:07;;;;;;;10.53;7.33;;;;;;;19.66;61.04;100383.09;714004;1205;114385;-83
2021/04/12 10:05:47;;;;;;;12.58;7.13;;;;;;;20.22;58.25;100391.08;715197;1200;113853;-83
2021/04/12 10:21:03;;;;;;;13.13;7.40;;;;;;;20.67;57.19;100412.00;714388;1206;114042;-81
2021/04/12 10:36:38;;;;;;;9.93;7.00;;;;;;;20.87;55.55;100390.77;714966;1177;113859;-83
2021/04/12 10:52:18;;;;;;;8.85;6.50;;;;;;;21.88;54.20;100402.41;715741;1177;113769;-82
2021/04/12 11:07:29;;;;;;;10.08;7.48;;;;;;;20.42;53.09;100401.02;714393;1200;115455;-75
2021/04/12 11:22:48;;;;;;;12.07;9.77;;;;;;;18.77;57.41;100431.05;714109;1203;113864;-71
2021/04/12 11:38:08;;;;;;;29.70;16.13;;;;;;;19.03;60.79;100447.53;713974;1203;113838;-70
2021/04/12 11:53:13;;;;;;;34.35;18.98;;;;;;;18.34;62.42;100499.12;714142;1200;113401;-70
2021/04/12 12:08:28;;;;;;;35.25;18.10;;;;;;;18.33;63.30;100519.55;714180;1200;115700;-71
2021/04/12 12:23:53;;;;;;;29.23;17.03;;;;;;;16.87;63.78;100551.03;714025;1200;116157;-71
2021/04/12 12:39:36;;;;;;;26.35;16.70;;;;;;;14.60;68.25;100593.29;714273;1205;114017;-70
2021/04/12 12:54:50;;;;;;;21.75;13.45;;;;;;;12.86;76.75;100608.17;714022;1202;115013;-70
2021/04/12 13:10:04;;;;;;;15.23;9.57;;;;;;;12.09;78.20;100640.47;713888;1200;115629;-71
2021/04/12 13:25:17;;;;;;;18.20;11.03;;;;;;;11.40;80.31;100655.19;714445;1200;113991;-71
2021/04/12 13:40:55;;;;;;;23.15;13.58;;;;;;;10.72;82.45;100668.73;714718;1205;114122;-71
2021/04/12 13:56:27;;;;;;;31.98;15.53;;;;;;;10.35;82.79;100692.73;714142;1204;114730;-72
2021/04/12 14:11:48;;;;;;;41.43;20.58;;;;;;;10.38;82.08;100700.34;714084;1202;114147;-71
2021/04/12 14:27:01;;;;;;;150.50;61.97;;;;;;;10.02;80.91;100714.56;714200;1203;114490;-70
2021/04/12 14:42:22;;;;;;;79.73;39.03;;;;;;;9.56;82.21;100730.30;714035;1200;114389;-71
2021/04/12 14:57:26;;;;;;;120.88;49.65;;;;;;;9.02;83.58;100750.05;713906;1204;115267;-71
2021/04/12 15:12:31;;;;;;;50.80;25.40;;;;;;;8.99;85.60;100786.93;713984;1201;115561;-71
2021/04/12 15:27:34;;;;;;;100.13;37.25;;;;;;;8.58;86.04;100807.29;714107;1203;114554;-71
2021/04/12 15:42:44;;;;;;;92.10;34.33;;;;;;;8.29;86.77;100825.01;713970;1200;115506;-74
2021/04/12 15:58:13;;;;;;;57.88;24.65;;;;;;;8.03;88.04;100845.11;714099;1200;113818;-71
2021/04/12 16:13:15;;;;;;;57.65;26.23;;;;;;;7.76;87.56;100836.42;714118;1202;114873;-70
2021/04/12 16:28:32;;;;;;;89.50;43.63;;;;;;;7.33;88.28;100899.30;713986;1200;115782;-70
2021/04/12 16:43:51;;;;;;;69.18;34.95;;;;;;;6.91;88.74;100930.63;714168;1200;113152;-69
2021/04/12 16:59:10;;;;;;;43.95;24.65;;;;;;;6.68;88.94;100968.57;713815;1200;114030;-71
2021/04/12 17:14:22;;;;;;;25.00;13.10;;;;;;;6.44;89.22;100974.33;713855;1200;114444;-70
2021/04/12 17:29:29;;;;;;;20.60;11.30;;;;;;;6.27;88.15;100980.55;713726;1176;113705;-73
2021/04/12 17:44:39;;;;;;;17.65;9.30;;;;;;;6.20;87.68;101020.90;714071;1202;115659;-71
2021/04/12 17:59:40;;;;;;;44.35;18.25;;;;;;;6.09;88.19;101039.76;714500;1205;114318;-70
2021/04/12 18:15:11;;;;;;;21.18;11.33;;;;;;;5.94;89.17;101071.88;714103;1200;114446;-70
2021/04/12 18:30:31;;;;;;;13.50;7.60;;;;;;;5.78;88.94;101071.86;714481;1200;114403;-70
2021/04/12 18:45:42;;;;;;;45.30;19.43;;;;;;;5.78;90.14;101098.76;714808;1200;114699;-69
2021/04/12 19:00:57;;;;;;;20.70;9.80;;;;;;;5.39;94.91;101099.98;714581;1200;113766;-70
2021/04/12 19:16:22;;;;;;;18.50;8.87;;;;;;;5.10;95.28;101094.55;714600;1200;115017;-69
2021/04/12 19:31:36;;;;;;;13.20;6.73;;;;;;;4.97;95.53;101096.94;714764;1200;113465;-73
2021/04/12 19:47:06;;;;;;;14.23;6.83;;;;;;;4.88;96.62;101112.19;714594;1200;115141;-73
2021/04/12 20:02:27;;;;;;;27.23;10.00;;;;;;;4.85;95.27;101143.55;714797;1205;113763;-73
2021/04/12 20:18:06;;;;;;;29.87;9.63;;;;;;;4.57;98.96;101124.14;714777;1200;113933;-74
2021/04/12 20:33:44;;;;;;;34.33;11.15;;;;;;;4.27;100.00;101140.30;714173;1202;113644;-73
2021/04/12 20:49:20;;;;;;;10.78;5.00;;;;;;;4.22;100.00;101142.27;715083;1200;113897;-69
2021/04/12 21:04:43;;;;;;;8.85;5.05;;;;;;;3.98;100.00;101145.11;714773;1200;113100;-70
2021/04/12 21:19:54;;;;;;;7.75;4.15;;;;;;;4.04;100.00;101142.23;714909;1200;114486;-74
2021/04/12 21:35:07;;;;;;;19.10;6.75;;;;;;;3.95;100.00;101143.49;714620;1199;113566;-69
2021/04/12 21:50:18;;;;;;;6.85;3.50;;;;;;;4.04;100.00;101154.36;715051;1176;113767;-70
2021/04/12 22:05:41;;;;;;;13.53;4.77;;;;;;;4.13;100.00;101172.10;715995;1177;114151;-69
2021/04/12 22:21:15;;;;;;;6.83;3.20;;;;;;;4.18;100.00;101193.51;714940;1200;113806;-74
2021/04/12 22:51:58;;;;;;;6.95;3.73;;;;;;;4.07;100.00;101219.98;715150;1201;113576;-73
2021/04/12 23:07:00;;;;;;;8.53;4.50;;;;;;;4.12;100.00;101206.80;714622;1200;114345;-75
2021/04/12 23:22:30;;;;;;;8.30;3.98;;;;;;;3.98;100.00;101191.84;715060;1204;113488;-73
2021/04/12 23:37:38;;;;;;;6.90;4.30;;;;;;;3.85;100.00;101185.53;721187;1205;114142;-73
2021/04/12 23:52:47;;;;;;;8.13;4.77;;;;;;;3.93;100.00;101199.00;714580;1205;113475;-75
